world map with FSC marked

FSC - Airport

This information may not be accurate or current and is not valid for navigation or flight planning. No warranty of fitness for any purpose is made or implied.

flag of Corse (Corsica)flag of France

Donate via PayPal

Additional information is available on the NEW Great Circle Mapper

Location
City:  Figari, Corse (Corsica), France
Name:Sud Corse
ICAO / IATA:LFKF / FSC

Details
Type:Airport (Aerodrome, Airfield)
Use:Public/Civil
Latitude:41°30'08"N (41.502222)
Longitude:9°05'48"E (9.096667)
Elevation:87 ft (27 m)
Runways:1
Longest:8136 × 148 ft (2480 × 45 m)

Time
Timezone:UTC+1 (DST+4)
Local Time:

Weather
METAR:LFKF  041400Z AUTO 09006KT 050V130 9999 // FEW040 SCT048 BKN072 13/06 Q1019
TAF:LFKF  041400Z 0415/0515 08008KT 9999 SCT040 BECMG 0418/0421 04005KT CAVOK

Related Locations
Nearby:
Farthest:CHT: 12114 mi / 19495 km
Waitangi [Tuuta], CIT, NZ

Find:

   beyond  
but within

Other Information
Maps:
Sources:

  


 


Great Circle Mapper   Great Circle Mapper
Great Circle Mapper FAQ   Great Circle Mapper FAQ
  Karl's Home Page
KLSē   KLSē Home
   GC on Facebook
Airlines of the World   Airlines of the World
Donate via PayPal


Copyright © 2004-2019, Karl L. Swartz. All rights reserved.
All trademarks mentioned herein belong to their respective owners.

Please see credits for attribution and copyright information.

Karl Swartz <karl@kls2.com>
  Powered by FreeBSD
Valid HTML 4.01!
Labeled with ICRA
hCard Microformat
Geo Microformat